createdAt,value
2022-09-06T00:00:15.941Z,95744.25
2022-09-06T00:02:43.692Z,95751.50
2022-09-06T00:05:11.877Z,95736.56
2022-09-06T00:07:39.142Z,95743.94
2022-09-06T00:10:07.034Z,95742.50
2022-09-06T00:12:34.679Z,95734.00
2022-09-06T00:15:01.488Z,95729.47
2022-09-06T00:17:28.293Z,95739.34
2022-09-06T00:19:55.203Z,95741.38
2022-09-06T00:22:22.176Z,95740.75
2022-09-06T00:24:49.385Z,95743.13
2022-09-06T00:27:16.328Z,95735.91
2022-09-06T00:29:43.112Z,95736.19
2022-09-06T00:32:10.123Z,95739.16
2022-09-06T00:34:36.965Z,95738.56
2022-09-06T00:37:03.923Z,95737.44
2022-09-06T00:39:30.707Z,95733.34
2022-09-06T00:41:57.600Z,95733.19
2022-09-06T00:44:24.319Z,95729.56
2022-09-06T00:46:53.308Z,95731.44
2022-09-06T00:49:36.438Z,95732.06
2022-09-06T00:52:10.147Z,95736.53
2022-09-06T00:54:37.689Z,95728.72
2022-09-06T00:57:04.707Z,95727.97
2022-09-06T00:59:34.761Z,95730.50
2022-09-06T01:02:02.008Z,95734.91
2022-09-06T01:04:49.242Z,95739.34
2022-09-06T01:07:40.943Z,95744.38
2022-09-06T01:10:31.868Z,95741.66
2022-09-06T01:13:20.471Z,95740.56
2022-09-06T01:16:20.810Z,95741.50
2022-09-06T01:18:47.668Z,95745.78
2022-09-06T01:21:28.624Z,95743.50
2022-09-06T01:24:01.896Z,95738.66
2022-09-06T01:26:56.675Z,95743.81
2022-09-06T01:29:32.259Z,95739.59
2022-09-06T01:32:40.244Z,95736.88
2022-09-06T01:35:27.124Z,95732.66
2022-09-06T01:37:55.659Z,95732.66
2022-09-06T01:40:22.764Z,95732.66
2022-09-06T01:42:51.144Z,95728.66
2022-09-06T01:45:27.509Z,95732.41
2022-09-06T01:48:10.780Z,95722.66
2022-09-06T01:50:57.370Z,95715.19
2022-09-06T01:53:50.535Z,95710.22
2022-09-06T01:56:37.942Z,95716.16
2022-09-06T01:59:20.817Z,95714.53
2022-09-06T02:02:08.580Z,95711.63
2022-09-06T02:04:38.179Z,95716.13
2022-09-06T02:07:15.537Z,95707.56
2022-09-06T02:09:47.024Z,95698.31
2022-09-06T02:12:17.109Z,95701.31
2022-09-06T02:14:49.989Z,95700.25
2022-09-06T02:17:23.817Z,95702.53
2022-09-06T02:20:16.469Z,95708.03
2022-09-06T02:22:46.845Z,95691.13
2022-09-06T02:25:22.558Z,95699.28
2022-09-06T02:27:49.782Z,95703.97
2022-09-06T02:30:17.717Z,95701.28
2022-09-06T02:32:50.931Z,95709.31
2022-09-06T02:35:17.953Z,95704.72
2022-09-06T02:37:45.191Z,95700.47
2022-09-06T02:40:12.678Z,95710.84
2022-09-06T02:42:40.207Z,95704.59
2022-09-06T02:45:07.849Z,95707.78
2022-09-06T02:47:34.567Z,95717.69
2022-09-06T02:50:01.565Z,95721.41
2022-09-06T02:52:28.327Z,95724.03
2022-09-06T02:54:55.247Z,95722.28
2022-09-06T02:57:21.948Z,95713.16
2022-09-06T02:59:48.810Z,95716.41
2022-09-06T03:02:15.989Z,95721.47
2022-09-06T03:04:42.832Z,95716.31
2022-09-06T03:07:09.686Z,95714.81
2022-09-06T03:09:36.494Z,95718.97
2022-09-06T03:12:03.947Z,95709.91
2022-09-06T03:14:30.683Z,95715.59
2022-09-06T03:16:57.709Z,95712.09
2022-09-06T03:19:24.480Z,95721.78
2022-09-06T03:21:51.483Z,95715.25
2022-09-06T03:24:18.292Z,95718.41
2022-09-06T03:26:45.027Z,95721.56
2022-09-06T03:29:12.004Z,95723.38
2022-09-06T03:31:38.777Z,95721.78
2022-09-06T03:34:10.302Z,95723.44
2022-09-06T03:36:37.972Z,95728.97
2022-09-06T03:39:04.799Z,95731.50
2022-09-06T03:41:31.670Z,95731.41
2022-09-06T03:43:58.451Z,95732.78
2022-09-06T03:46:25.362Z,95737.13
2022-09-06T03:48:52.136Z,95737.09
2022-09-06T03:51:18.942Z,95736.25
2022-09-06T03:53:45.863Z,95737.75
2022-09-06T03:56:12.793Z,95739.31
2022-09-06T03:58:39.519Z,95736.84
2022-09-06T04:01:11.397Z,95744.22
2022-09-06T04:03:39.062Z,95739.50
2022-09-06T04:06:07.091Z,95737.03
2022-09-06T04:08:35.634Z,95741.31
2022-09-06T04:11:02.466Z,95744.34
2022-09-06T04:13:30.176Z,95751.28
2022-09-06T04:15:57.630Z,95750.16
2022-09-06T04:18:25.042Z,95748.16
2022-09-06T04:20:53.335Z,95743.63
2022-09-06T04:23:20.508Z,95744.53
2022-09-06T04:25:48.899Z,95744.59
2022-09-06T04:28:18.273Z,95736.94
2022-09-06T04:30:57.426Z,95744.47
2022-09-06T04:33:27.044Z,95743.38
2022-09-06T04:35:56.534Z,95738.06
2022-09-06T04:38:24.179Z,95734.38
2022-09-06T04:40:51.034Z,95743.00
2022-09-06T04:43:18.308Z,95747.75
2022-09-06T04:45:45.521Z,95742.38
2022-09-06T04:48:12.470Z,95748.25
2022-09-06T04:50:39.255Z,95740.13
2022-09-06T04:53:07.054Z,95745.94
2022-09-06T04:55:34.748Z,95744.72
2022-09-06T04:58:01.647Z,95740.06
2022-09-06T05:00:30.273Z,95749.88
2022-09-06T05:02:57.491Z,95741.69
2022-09-06T05:05:25.144Z,95746.28
2022-09-06T05:07:53.186Z,95740.72
2022-09-06T05:10:21.159Z,95739.09
2022-09-06T05:12:49.615Z,95735.97
2022-09-06T05:15:18.220Z,95741.25
2022-09-06T05:17:45.091Z,95731.50
2022-09-06T05:20:13.012Z,95736.97
2022-09-06T05:22:41.117Z,95733.75
2022-09-06T05:25:09.748Z,95741.56
2022-09-06T05:27:36.807Z,95721.69
2022-09-06T05:30:04.279Z,95731.00
2022-09-06T05:32:31.271Z,95728.75
2022-09-06T05:34:57.999Z,95729.56
2022-09-06T05:37:24.919Z,95740.81
2022-09-06T05:39:52.208Z,95735.06
2022-09-06T05:42:19.548Z,95736.94
2022-09-06T05:44:46.749Z,95740.94
2022-09-06T05:47:13.835Z,95739.72
2022-09-06T05:49:41.703Z,95739.69
2022-09-06T05:52:10.447Z,95738.13
2022-09-06T05:54:37.411Z,95731.59
2022-09-06T05:57:04.416Z,95730.22
2022-09-06T05:59:31.219Z,95731.06
2022-09-06T06:01:58.220Z,95728.13
2022-09-06T06:04:24.990Z,95724.91
2022-09-06T06:06:53.014Z,95730.91
2022-09-06T06:09:19.790Z,95728.72
2022-09-06T06:11:46.723Z,95711.47
2022-09-06T06:14:13.525Z,95721.84
2022-09-06T06:16:40.556Z,95717.34
2022-09-06T06:19:07.371Z,95708.56
2022-09-06T06:21:35.079Z,95708.84
2022-09-06T06:24:04.132Z,95704.50
2022-09-06T06:26:33.962Z,95706.47
2022-09-06T06:29:02.458Z,95713.06
2022-09-06T06:31:30.865Z,95708.94
2022-09-06T06:33:58.464Z,95708.19
2022-09-06T06:36:30.890Z,95713.69
2022-09-06T06:38:58.577Z,95703.44
2022-09-06T06:41:28.795Z,95707.72
2022-09-06T06:43:57.844Z,95707.25
2022-09-06T06:46:27.848Z,95706.63
2022-09-06T06:48:55.495Z,95707.84
2022-09-06T06:51:26.018Z,95702.03
2022-09-06T06:53:53.010Z,95711.00
2022-09-06T06:56:28.531Z,95705.16
2022-09-06T06:58:59.087Z,95710.63
2022-09-06T07:01:28.064Z,95708.00
2022-09-06T07:03:55.380Z,95705.63
2022-09-06T07:09:09.778Z,95705.34
2022-09-06T07:11:36.569Z,95701.97
2022-09-06T07:14:03.846Z,95692.13
2022-09-06T07:16:30.733Z,95709.50
2022-09-06T07:18:57.753Z,95700.34
2022-09-06T07:26:39.039Z,95709.94
2022-09-06T07:29:07.663Z,95705.72
2022-09-06T07:34:25.199Z,95706.09
2022-09-06T07:36:56.300Z,95709.09
2022-09-06T07:39:23.662Z,95709.06
2022-09-06T07:41:50.522Z,95708.28
2022-09-06T07:44:17.485Z,95710.78
2022-09-06T07:46:44.366Z,95715.03
2022-09-06T07:49:11.284Z,95703.88
2022-09-06T07:51:38.374Z,95705.06
2022-09-06T07:54:29.349Z,95713.03
2022-09-06T07:56:53.888Z,95701.91
2022-09-06T07:59:20.648Z,95708.19
2022-09-06T08:01:48.315Z,95706.78
2022-09-06T08:04:15.755Z,95700.38
2022-09-06T08:09:36.231Z,95698.69
2022-09-06T08:12:06.980Z,95677.19
2022-09-06T08:14:35.075Z,95689.13
2022-09-06T08:17:03.373Z,95690.03
2022-09-06T08:19:30.319Z,95689.34
2022-09-06T08:21:57.253Z,95685.75
2022-09-06T08:24:24.052Z,95682.41
2022-09-06T08:26:51.070Z,95690.72
2022-09-06T08:29:18.932Z,95696.97
2022-09-06T08:31:46.490Z,95684.56
2022-09-06T08:34:14.262Z,95680.25
2022-09-06T08:36:42.065Z,95687.56
2022-09-06T08:39:10.203Z,95678.06
2022-09-06T08:41:55.601Z,95676.09
2022-09-06T08:44:55.279Z,95664.03
2022-09-06T08:47:23.290Z,95668.81
2022-09-06T08:50:06.826Z,95670.56
2022-09-06T08:55:47.699Z,95659.69
2022-09-06T08:58:39.745Z,95644.94
2022-09-06T09:01:14.655Z,95640.63
2022-09-06T09:03:44.679Z,95637.66
2022-09-06T09:06:11.662Z,95632.38
2022-09-06T09:09:05.912Z,95638.44
2022-09-06T09:11:36.081Z,95621.88
2022-09-06T09:14:09.031Z,95619.41
2022-09-06T09:16:36.117Z,95616.13
2022-09-06T09:19:05.344Z,95612.47
2022-09-06T09:21:35.185Z,95610.44
2022-09-06T09:24:06.103Z,95602.88
2022-09-06T09:26:44.330Z,95609.78
2022-09-06T09:29:13.949Z,95601.13
2022-09-06T09:31:53.337Z,95595.59
2022-09-06T09:34:47.897Z,95589.78
2022-09-06T09:40:25.342Z,95586.66
2022-09-06T09:42:55.031Z,95580.75
2022-09-06T09:45:31.402Z,95581.06
2022-09-06T09:48:16.836Z,95576.88
2022-09-06T09:50:43.664Z,95578.63
2022-09-06T09:53:14.418Z,95583.34
2022-09-06T09:55:42.934Z,95585.56
2022-09-06T09:58:24.323Z,95582.19
2022-09-06T10:01:10.052Z,95570.63
2022-09-06T10:09:19.299Z,95559.75
2022-09-06T10:11:55.321Z,95557.91
2022-09-06T10:14:27.375Z,95549.38
2022-09-06T10:16:54.579Z,95552.75
2022-09-06T10:19:41.234Z,95555.13
2022-09-06T10:22:29.184Z,95554.81
2022-09-06T10:25:32.983Z,95551.69
2022-09-06T10:28:11.368Z,95550.91
2022-09-06T10:30:56.007Z,95544.13
2022-09-06T10:33:52.182Z,95543.94
2022-09-06T10:36:28.424Z,95544.91
2022-09-06T10:39:04.279Z,95538.41
2022-09-06T10:41:49.508Z,95533.47
2022-09-06T10:44:30.587Z,95530.41
2022-09-06T10:47:10.935Z,95527.91
2022-09-06T10:49:40.911Z,95536.25
2022-09-06T10:52:12.003Z,95530.03
2022-09-06T10:54:41.999Z,95517.81
2022-09-06T11:00:13.658Z,95518.50
2022-09-06T11:06:20.028Z,95506.59
2022-09-06T11:09:12.220Z,95508.03
2022-09-06T11:11:52.809Z,95507.59
2022-09-06T11:14:23.877Z,95504.78
2022-09-06T11:17:07.387Z,95508.47
2022-09-06T11:20:10.536Z,95511.13
2022-09-06T11:23:07.180Z,95513.88
2022-09-06T11:25:49.051Z,95501.09
2022-09-06T11:28:29.244Z,95503.25
2022-09-06T11:30:58.088Z,95506.47
2022-09-06T11:33:28.861Z,95504.25
2022-09-06T11:36:29.255Z,95505.72
2022-09-06T11:38:59.089Z,95493.78
2022-09-06T11:41:32.618Z,95499.72
2022-09-06T11:43:59.886Z,95490.31
2022-09-06T11:46:36.009Z,95489.50
2022-09-06T11:49:02.999Z,95479.53
2022-09-06T11:51:42.041Z,95481.69
2022-09-06T11:54:40.792Z,95466.66
2022-09-06T11:57:16.196Z,95470.13
2022-09-06T11:59:43.193Z,95476.69
2022-09-06T12:02:39.059Z,95468.63
2022-09-06T12:05:09.879Z,95476.66
2022-09-06T12:07:38.999Z,95465.66
2022-09-06T12:10:31.591Z,95462.09
2022-09-06T12:12:58.979Z,95461.13
2022-09-06T12:15:29.276Z,95467.53
2022-09-06T12:17:57.547Z,95470.84
2022-09-06T12:20:49.436Z,95470.50
2022-09-06T12:23:34.600Z,95459.84
2022-09-06T12:26:07.068Z,95447.09
2022-09-06T12:28:42.836Z,95451.72
2022-09-06T12:31:26.043Z,95462.03
2022-09-06T12:33:57.229Z,95457.25
2022-09-06T12:36:31.010Z,95454.16
2022-09-06T12:39:12.166Z,95448.59
2022-09-06T12:41:47.483Z,95448.94
2022-09-06T12:44:16.636Z,95441.13
2022-09-06T12:46:51.645Z,95438.50
2022-09-06T12:49:23.368Z,95440.81
2022-09-06T12:51:50.496Z,95434.94
2022-09-06T12:54:26.333Z,95434.97
2022-09-06T12:56:53.832Z,95432.34
2022-09-06T12:59:24.560Z,95425.19
2022-09-06T13:02:12.484Z,95420.84
2022-09-06T13:04:47.052Z,95429.03
2022-09-06T13:07:17.764Z,95436.47
2022-09-06T13:09:47.191Z,95427.59
2022-09-06T13:12:30.805Z,95439.53
2022-09-06T13:15:01.420Z,95430.03
2022-09-06T13:17:30.186Z,95429.31
2022-09-06T13:20:02.473Z,95427.81
2022-09-06T13:22:47.554Z,95419.91
2022-09-06T13:25:21.131Z,95432.81
2022-09-06T13:27:51.218Z,95429.47
2022-09-06T13:30:30.212Z,95430.28
2022-09-06T13:32:57.146Z,95432.34
2022-09-06T13:35:26.358Z,95433.00
2022-09-06T13:37:53.208Z,95442.34
2022-09-06T13:41:09.726Z,95435.78
2022-09-06T13:43:42.735Z,95439.22
2022-09-06T13:46:12.421Z,95434.81
2022-09-06T13:48:44.932Z,95434.81
2022-09-06T13:51:12.138Z,95430.88
2022-09-06T13:53:38.887Z,95425.63
2022-09-06T13:56:08.609Z,95426.00
2022-09-06T13:58:36.324Z,95437.28
2022-09-06T14:01:08.606Z,95426.06
2022-09-06T14:03:38.216Z,95421.22
2022-09-06T14:06:05.107Z,95418.97
2022-09-06T14:08:49.735Z,95405.47
2022-09-06T14:11:21.379Z,95409.72
2022-09-06T14:13:48.220Z,95410.00
2022-09-06T14:16:15.374Z,95396.59
2022-09-06T14:18:42.260Z,95398.34
2022-09-06T14:21:09.297Z,95406.63
2022-09-06T14:23:36.223Z,95411.69
2022-09-06T14:26:04.607Z,95405.44
2022-09-06T14:28:32.988Z,95413.84
2022-09-06T14:31:14.138Z,95401.97
2022-09-06T14:33:41.213Z,95414.75
2022-09-06T14:36:10.814Z,95410.88
2022-09-06T14:38:39.275Z,95417.59
2022-09-06T14:41:07.764Z,95413.50
2022-09-06T14:43:35.623Z,95420.03
2022-09-06T14:46:07.721Z,95415.78
2022-09-06T14:48:39.191Z,95419.31
2022-09-06T14:51:20.889Z,95413.75
2022-09-06T14:53:50.131Z,95410.72
2022-09-06T14:56:17.061Z,95407.72
2022-09-06T14:58:44.152Z,95416.38
2022-09-06T15:01:19.430Z,95414.28
2022-09-06T15:03:51.520Z,95403.97
2022-09-06T15:06:20.949Z,95415.09
2022-09-06T15:08:48.646Z,95407.72
2022-09-06T15:11:27.649Z,95411.66
2022-09-06T15:13:54.515Z,95419.16
2022-09-06T15:16:21.412Z,95416.53
2022-09-06T15:18:48.483Z,95411.28
2022-09-06T15:21:16.818Z,95413.50
2022-09-06T15:23:43.957Z,95421.06
2022-09-06T15:26:13.815Z,95424.97
2022-09-06T15:28:43.709Z,95425.44
2022-09-06T15:31:11.789Z,95419.97
2022-09-06T15:33:39.634Z,95425.00
2022-09-06T15:36:09.611Z,95425.31
2022-09-06T15:38:39.570Z,95420.56
2022-09-06T15:41:08.796Z,95430.50
2022-09-06T15:43:37.276Z,95431.91
2022-09-06T15:46:04.636Z,95433.97
2022-09-06T15:48:41.223Z,95426.66
2022-09-06T15:51:08.642Z,95435.22
2022-09-06T15:53:35.416Z,95431.41
2022-09-06T15:56:03.078Z,95432.81
2022-09-06T15:58:30.603Z,95428.69
2022-09-06T16:01:21.625Z,95437.75
2022-09-06T16:03:54.420Z,95439.66
2022-09-06T16:06:27.910Z,95439.03
2022-09-06T16:08:58.818Z,95435.84
2022-09-06T16:11:26.715Z,95442.44
2022-09-06T16:13:55.048Z,95433.34
2022-09-06T16:16:24.260Z,95431.72
2022-09-06T16:18:54.436Z,95429.34
2022-09-06T16:21:24.481Z,95439.09
2022-09-06T16:23:57.519Z,95435.31
2022-09-06T16:26:28.264Z,95431.47
2022-09-06T16:28:55.303Z,95435.06
2022-09-06T16:31:22.674Z,95436.34
2022-09-06T16:33:50.328Z,95442.19
2022-09-06T16:36:18.976Z,95434.19
2022-09-06T16:38:46.921Z,95431.34
2022-09-06T16:41:19.603Z,95439.16
2022-09-06T16:43:47.940Z,95443.59
2022-09-06T16:46:15.326Z,95448.13
2022-09-06T16:48:43.535Z,95443.59
2022-09-06T16:51:18.962Z,95448.31
2022-09-06T16:53:47.264Z,95452.59
2022-09-06T16:56:17.310Z,95451.66
2022-09-06T16:58:54.624Z,95448.47
2022-09-06T17:01:22.778Z,95452.69
2022-09-06T17:03:50.717Z,95445.63
2022-09-06T17:06:18.719Z,95449.34
2022-09-06T17:08:45.677Z,95452.06
2022-09-06T17:11:18.729Z,95456.97
2022-09-06T17:13:48.572Z,95464.38
2022-09-06T17:16:34.363Z,95466.53
2022-09-06T17:19:02.421Z,95469.09
2022-09-06T17:21:30.309Z,95475.34
2022-09-06T17:24:03.125Z,95469.53
2022-09-06T17:26:35.390Z,95482.66
2022-09-06T17:29:02.601Z,95482.72
2022-09-06T17:31:29.806Z,95481.16
2022-09-06T17:33:56.696Z,95462.84
2022-09-06T17:36:29.897Z,95481.09
2022-09-06T17:39:10.175Z,95479.47
2022-09-06T17:41:55.223Z,95472.31
2022-09-06T17:44:25.521Z,95484.13
2022-09-06T17:47:11.418Z,95489.06
2022-09-06T17:49:39.583Z,95487.78
2022-09-06T17:52:06.288Z,95483.94
2022-09-06T17:54:33.459Z,95486.97
2022-09-06T17:57:00.331Z,95492.16
2022-09-06T17:59:30.430Z,95494.22
2022-09-06T18:01:59.840Z,95499.81
2022-09-06T18:04:26.871Z,95502.38
2022-09-06T18:06:53.747Z,95479.13
2022-09-06T18:09:21.495Z,95483.06
2022-09-06T18:11:48.902Z,95512.88
2022-09-06T18:14:18.392Z,95511.16
2022-09-06T18:16:47.202Z,95509.22
2022-09-06T18:19:15.330Z,95515.13
2022-09-06T18:21:42.585Z,95518.41
2022-09-06T18:24:10.384Z,95519.13
2022-09-06T18:26:37.554Z,95507.84
2022-09-06T18:29:07.280Z,95514.00
2022-09-06T18:31:34.835Z,95522.84
2022-09-06T18:34:02.181Z,95519.56
2022-09-06T18:36:32.247Z,95517.22
2022-09-06T18:39:04.932Z,95527.81
2022-09-06T18:41:52.012Z,95521.31
2022-09-06T18:44:19.629Z,95533.13
2022-09-06T18:46:47.167Z,95526.00
2022-09-06T18:49:15.325Z,95528.75
2022-09-06T18:51:43.626Z,95531.13
2022-09-06T18:54:11.710Z,95526.59
2022-09-06T18:56:41.016Z,95510.78
2022-09-06T18:59:08.121Z,95524.69
2022-09-06T19:01:35.490Z,95534.41
2022-09-06T19:04:04.553Z,95525.84
2022-09-06T19:06:33.376Z,95531.38
2022-09-06T19:09:09.215Z,95535.81
2022-09-06T19:11:36.626Z,95523.84
2022-09-06T19:14:04.877Z,95523.94
2022-09-06T19:16:33.417Z,95530.34
2022-09-06T19:19:08.652Z,95523.63
2022-09-06T19:21:42.024Z,95526.63
2022-09-06T19:24:13.960Z,95517.63
2022-09-06T19:26:43.184Z,95522.50
2022-09-06T19:29:18.200Z,95525.81
2022-09-06T19:31:47.320Z,95527.81
2022-09-06T19:34:15.732Z,95521.53
2022-09-06T19:36:44.993Z,95531.88
2022-09-06T19:39:14.935Z,95526.50
2022-09-06T19:41:46.984Z,95518.88
2022-09-06T19:44:16.489Z,95520.19
2022-09-06T19:46:46.194Z,95516.91
2022-09-06T19:49:16.049Z,95518.63
2022-09-06T19:51:45.293Z,95508.91
2022-09-06T19:54:12.966Z,95513.53
2022-09-06T19:56:39.837Z,95514.22
2022-09-06T19:59:08.867Z,95512.22
2022-09-06T20:01:37.721Z,95509.06
2022-09-06T20:04:08.577Z,95503.69
2022-09-06T20:06:36.272Z,95511.59
2022-09-06T20:09:06.496Z,95511.91
2022-09-06T20:11:35.626Z,95517.19
2022-09-06T20:14:02.610Z,95513.38
2022-09-06T20:16:30.513Z,95506.13
2022-09-06T20:19:01.800Z,95517.75
2022-09-06T20:21:29.189Z,95513.84
2022-09-06T20:23:57.850Z,95500.53
2022-09-06T20:26:30.417Z,95519.22
2022-09-06T20:28:59.612Z,95518.63
2022-09-06T20:31:28.132Z,95516.97
2022-09-06T20:33:55.797Z,95522.66
2022-09-06T20:36:22.824Z,95508.47
2022-09-06T20:38:50.061Z,95515.97
2022-09-06T20:41:22.869Z,95522.66
2022-09-06T20:43:59.679Z,95519.44
2022-09-06T20:46:30.673Z,95520.09
2022-09-06T20:49:01.915Z,95517.75
2022-09-06T20:51:28.776Z,95527.94
2022-09-06T20:54:00.591Z,95526.94
2022-09-06T20:56:30.429Z,95522.03
2022-09-06T20:59:02.725Z,95532.31
2022-09-06T21:01:35.688Z,95531.41
2022-09-06T21:04:05.886Z,95530.19
2022-09-06T21:06:35.978Z,95532.22
2022-09-06T21:09:11.046Z,95536.97
2022-09-06T21:11:38.823Z,95524.31
2022-09-06T21:14:06.324Z,95534.28
2022-09-06T21:16:33.338Z,95531.25
2022-09-06T21:19:05.375Z,95532.41
2022-09-06T21:21:34.548Z,95535.66
2022-09-06T21:24:02.690Z,95531.72
2022-09-06T21:26:30.120Z,95534.28
2022-09-06T21:28:57.152Z,95530.56
2022-09-06T21:31:26.705Z,95524.38
2022-09-06T21:33:55.880Z,95527.97
2022-09-06T21:36:29.955Z,95538.94
2022-09-06T21:38:59.816Z,95535.03
2022-09-06T21:41:27.494Z,95527.63
2022-09-06T21:43:56.821Z,95528.03
2022-09-06T21:46:29.117Z,95540.38
2022-09-06T21:49:05.254Z,95529.13
2022-09-06T21:51:32.686Z,95528.47
2022-09-06T21:54:03.428Z,95537.19
2022-09-06T21:56:30.943Z,95533.66
2022-09-06T21:58:58.780Z,95530.59
2022-09-06T22:01:28.525Z,95531.88
2022-09-06T22:03:55.813Z,95526.78
2022-09-06T22:06:25.131Z,95535.41
2022-09-06T22:08:52.256Z,95528.75
2022-09-06T22:11:24.040Z,95540.28
2022-09-06T22:13:51.609Z,95535.13
2022-09-06T22:16:21.629Z,95530.84
2022-09-06T22:18:49.644Z,95534.75
2022-09-06T22:21:20.209Z,95532.25
2022-09-06T22:24:01.571Z,95524.16
2022-09-06T22:26:31.621Z,95525.88
2022-09-06T22:29:00.901Z,95539.13
2022-09-06T22:31:29.533Z,95533.91
2022-09-06T22:33:57.041Z,95537.56
2022-09-06T22:36:25.507Z,95527.94
2022-09-06T22:38:57.111Z,95532.53
2022-09-06T22:41:30.413Z,95522.47
2022-09-06T22:43:59.964Z,95530.50
2022-09-06T22:46:28.723Z,95524.34
2022-09-06T22:48:55.710Z,95530.81
2022-09-06T22:51:22.605Z,95530.09
2022-09-06T22:53:49.896Z,95523.81
2022-09-06T22:56:16.716Z,95526.88
2022-09-06T22:58:43.866Z,95536.97
2022-09-06T23:01:13.216Z,95534.75
2022-09-06T23:03:41.885Z,95524.06
2022-09-06T23:06:09.302Z,95532.22
2022-09-06T23:08:38.166Z,95533.72
2022-09-06T23:11:12.948Z,95529.81
2022-09-06T23:13:43.793Z,95528.53
2022-09-06T23:16:14.172Z,95532.47
2022-09-06T23:18:41.491Z,95532.59
2022-09-06T23:21:13.337Z,95537.78
2022-09-06T23:23:41.627Z,95526.34
2022-09-06T23:26:28.778Z,95539.59
2022-09-06T23:28:56.955Z,95533.59
2022-09-06T23:31:29.224Z,95535.94
2022-09-06T23:33:57.803Z,95537.25
2022-09-06T23:36:25.343Z,95541.53
2022-09-06T23:38:52.344Z,95533.38
2022-09-06T23:41:19.380Z,95526.47
2022-09-06T23:43:46.162Z,95539.84
2022-09-06T23:46:14.721Z,95544.22
2022-09-06T23:48:43.568Z,95546.56
2022-09-06T23:51:11.150Z,95551.91
2022-09-06T23:53:38.697Z,95543.88
2022-09-06T23:56:06.005Z,95556.00
2022-09-06T23:58:33.155Z,95555.81
